Airport Name : Imam Khomeini Intl

Other Name : Tehran Khomeini

ICAO : OIIE

IATA : IKA

FAA :

Latitude : 35.416111

Longitude : 51.152222

Country : Iran

Local Date and Time : 10/16/2018 10:56:00 AM

 

TAF (Terminal Aerodrome Forecast)

TAF OIIE 160530Z 1606/1712 34005MPS 8000 FEW040

 

METAR (METeorological Aerodrome Report)

OIIE 160700Z 32004KT 9999 FEW040 SCT180 20/08 Q1025

OIIE 160600Z 32008KT 9999 FEW045 SCT180 19/08 Q1025

OIIE 160500Z 31008KT 9999 FEW045 SCT180 17/08 Q1025

OIIE 160430Z 32007KT 9999 FEW045 SCT130 16/08 Q1025

OIIE 160400Z 30008KT 9999 FEW045 SCT120 15/08 Q1024